sensor_id;sensor_type;location;lat;lon;timestamp;pressure;altitude;pressure_sealevel;temperature;humidity
21988;BME280;11158;53.404;-1.510;2022-12-19T00:01:08;99117.63;;;11.48;61.68
21988;BME280;11158;53.404;-1.510;2022-12-19T00:03:34;99104.72;;;11.38;62.05
21988;BME280;11158;53.404;-1.510;2022-12-19T00:06:03;99099.84;;;11.53;62.07
21988;BME280;11158;53.404;-1.510;2022-12-19T00:08:29;99093.03;;;11.58;62.72
21988;BME280;11158;53.404;-1.510;2022-12-19T00:11:00;99089.00;;;11.67;62.87
21988;BME280;11158;53.404;-1.510;2022-12-19T00:13:30;99076.50;;;11.42;63.87
21988;BME280;11158;53.404;-1.510;2022-12-19T00:16:00;99083.44;;;12.05;63.06
21988;BME280;11158;53.404;-1.510;2022-12-19T00:18:27;99072.72;;;11.87;63.53
21988;BME280;11158;53.404;-1.510;2022-12-19T00:20:58;99066.41;;;11.63;64.35
21988;BME280;11158;53.404;-1.510;2022-12-19T00:23:39;99048.56;;;11.75;64.11
21988;BME280;11158;53.404;-1.510;2022-12-19T00:26:14;99051.69;;;11.53;64.74
21988;BME280;11158;53.404;-1.510;2022-12-19T00:28:42;99046.47;;;11.95;64.42
21988;BME280;11158;53.404;-1.510;2022-12-19T00:31:09;99048.56;;;11.93;64.12
21988;BME280;11158;53.404;-1.510;2022-12-19T00:33:35;99057.97;;;12.14;64.02
21988;BME280;11158;53.404;-1.510;2022-12-19T00:36:03;99056.03;;;12.33;63.97
21988;BME280;11158;53.404;-1.510;2022-12-19T00:38:29;99051.88;;;12.07;64.21
21988;BME280;11158;53.404;-1.510;2022-12-19T00:41:08;99043.97;;;12.12;64.16
21988;BME280;11158;53.404;-1.510;2022-12-19T00:43:34;99044.69;;;11.71;65.11
21988;BME280;11158;53.404;-1.510;2022-12-19T00:46:05;99023.34;;;11.83;65.04
21988;BME280;11158;53.404;-1.510;2022-12-19T00:48:32;99025.81;;;11.84;65.53
21988;BME280;11158;53.404;-1.510;2022-12-19T00:51:03;99021.94;;;11.99;65.42
21988;BME280;11158;53.404;-1.510;2022-12-19T00:53:29;99023.50;;;11.88;65.98
21988;BME280;11158;53.404;-1.510;2022-12-19T00:55:55;99013.75;;;11.57;67.20
21988;BME280;11158;53.404;-1.510;2022-12-19T00:58:22;98998.06;;;12.09;66.38
21988;BME280;11158;53.404;-1.510;2022-12-19T01:00:47;98990.41;;;11.82;66.59
21988;BME280;11158;53.404;-1.510;2022-12-19T01:03:13;98996.09;;;11.56;68.45
21988;BME280;11158;53.404;-1.510;2022-12-19T01:05:39;98989.00;;;11.43;68.76
21988;BME280;11158;53.404;-1.510;2022-12-19T01:08:04;98989.69;;;12.05;67.41
21988;BME280;11158;53.404;-1.510;2022-12-19T01:10:30;98986.66;;;11.83;66.95
21988;BME280;11158;53.404;-1.510;2022-12-19T01:12:56;98995.22;;;12.34;66.34
21988;BME280;11158;53.404;-1.510;2022-12-19T01:15:23;98977.19;;;11.87;67.14
21988;BME280;11158;53.404;-1.510;2022-12-19T01:17:49;98972.44;;;11.71;68.48
21988;BME280;11158;53.404;-1.510;2022-12-19T01:20:18;98961.25;;;11.44;69.52
21988;BME280;11158;53.404;-1.510;2022-12-19T01:22:45;98952.88;;;12.01;68.24
21988;BME280;11158;53.404;-1.510;2022-12-19T01:25:11;98965.41;;;11.70;69.39
21988;BME280;11158;53.404;-1.510;2022-12-19T01:27:37;98969.84;;;11.94;68.63
21988;BME280;11158;53.404;-1.510;2022-12-19T01:30:04;98960.09;;;12.54;67.07
21988;BME280;11158;53.404;-1.510;2022-12-19T01:32:30;98957.66;;;11.99;68.62
21988;BME280;11158;53.404;-1.510;2022-12-19T01:34:55;98951.59;;;11.73;70.72
21988;BME280;11158;53.404;-1.510;2022-12-19T01:37:21;98944.47;;;11.97;70.78
21988;BME280;11158;53.404;-1.510;2022-12-19T01:39:47;98950.81;;;12.14;69.63
21988;BME280;11158;53.404;-1.510;2022-12-19T01:42:20;98947.47;;;12.43;69.41
21988;BME280;11158;53.404;-1.510;2022-12-19T01:50:25;98936.19;;;12.41;69.05
21988;BME280;11158;53.404;-1.510;2022-12-19T01:52:52;98935.09;;;12.18;69.62
21988;BME280;11158;53.404;-1.510;2022-12-19T01:55:19;98932.22;;;12.43;69.60
21988;BME280;11158;53.404;-1.510;2022-12-19T01:57:45;98928.00;;;12.12;71.37
21988;BME280;11158;53.404;-1.510;2022-12-19T02:00:12;98923.09;;;12.21;70.85
21988;BME280;11158;53.404;-1.510;2022-12-19T02:02:42;98923.25;;;12.38;70.63
21988;BME280;11158;53.404;-1.510;2022-12-19T02:05:10;98916.28;;;12.60;69.53
21988;BME280;11158;53.404;-1.510;2022-12-19T02:07:36;98913.44;;;12.55;70.22
21988;BME280;11158;53.404;-1.510;2022-12-19T02:10:03;98916.03;;;12.50;70.37
21988;BME280;11158;53.404;-1.510;2022-12-19T02:12:33;98898.66;;;12.29;71.37
21988;BME280;11158;53.404;-1.510;2022-12-19T02:15:00;98911.47;;;12.39;71.11
21988;BME280;11158;53.404;-1.510;2022-12-19T02:31:07;98897.72;;;12.58;69.82
21988;BME280;11158;53.404;-1.510;2022-12-19T02:36:20;98894.34;;;12.75;69.95
21988;BME280;11158;53.404;-1.510;2022-12-19T02:39:03;98891.78;;;12.33;70.61
21988;BME280;11158;53.404;-1.510;2022-12-19T02:44:39;98887.13;;;12.64;70.06
21988;BME280;11158;53.404;-1.510;2022-12-19T02:47:08;98873.25;;;12.78;69.98
21988;BME280;11158;53.404;-1.510;2022-12-19T02:49:36;98890.75;;;12.57;70.87
21988;BME280;11158;53.404;-1.510;2022-12-19T02:52:40;98884.13;;;12.60;70.72
21988;BME280;11158;53.404;-1.510;2022-12-19T02:55:00;98875.25;;;12.71;70.35
21988;BME280;11158;53.404;-1.510;2022-12-19T02:57:32;98876.53;;;12.57;70.81
21988;BME280;11158;53.404;-1.510;2022-12-19T03:00:16;98875.31;;;12.88;70.31
21988;BME280;11158;53.404;-1.510;2022-12-19T03:02:46;98879.44;;;12.20;72.11
21988;BME280;11158;53.404;-1.510;2022-12-19T03:05:26;98869.56;;;13.08;69.64
21988;BME280;11158;53.404;-1.510;2022-12-19T03:10:41;98865.94;;;12.62;71.40
21988;BME280;11158;53.404;-1.510;2022-12-19T03:13:13;98863.34;;;12.44;71.56
21988;BME280;11158;53.404;-1.510;2022-12-19T03:15:42;98847.97;;;12.15;72.70
21988;BME280;11158;53.404;-1.510;2022-12-19T03:18:09;98854.50;;;12.31;71.46
21988;BME280;11158;53.404;-1.510;2022-12-19T03:20:47;98866.19;;;12.37;72.33
21988;BME280;11158;53.404;-1.510;2022-12-19T03:23:15;98871.66;;;12.19;72.35
21988;BME280;11158;53.404;-1.510;2022-12-19T03:25:45;98865.91;;;12.50;71.76
21988;BME280;11158;53.404;-1.510;2022-12-19T03:28:19;98855.47;;;12.89;70.82
21988;BME280;11158;53.404;-1.510;2022-12-19T03:30:46;98848.81;;;12.28;72.03
21988;BME280;11158;53.404;-1.510;2022-12-19T03:33:12;98859.13;;;12.83;71.44
21988;BME280;11158;53.404;-1.510;2022-12-19T03:35:39;98850.78;;;12.44;72.02
21988;BME280;11158;53.404;-1.510;2022-12-19T03:38:06;98852.81;;;12.89;70.10
21988;BME280;11158;53.404;-1.510;2022-12-19T03:40:36;98860.56;;;12.62;72.07
21988;BME280;11158;53.404;-1.510;2022-12-19T03:43:05;98857.78;;;12.22;72.98
21988;BME280;11158;53.404;-1.510;2022-12-19T03:48:27;98862.78;;;12.42;73.22
21988;BME280;11158;53.404;-1.510;2022-12-19T03:58:59;98886.88;;;12.77;73.34
21988;BME280;11158;53.404;-1.510;2022-12-19T04:01:27;98881.59;;;12.94;72.17
21988;BME280;11158;53.404;-1.510;2022-12-19T04:03:55;98876.97;;;12.66;73.15
21988;BME280;11158;53.404;-1.510;2022-12-19T04:06:22;98884.31;;;12.70;72.74
21988;BME280;11158;53.404;-1.510;2022-12-19T04:08:49;98876.94;;;12.89;71.70
21988;BME280;11158;53.404;-1.510;2022-12-19T04:11:17;98875.69;;;12.80;71.73
21988;BME280;11158;53.404;-1.510;2022-12-19T04:13:51;98867.06;;;12.66;72.12
21988;BME280;11158;53.404;-1.510;2022-12-19T04:16:34;98873.81;;;13.21;69.88
21988;BME280;11158;53.404;-1.510;2022-12-19T04:19:24;98879.44;;;12.67;72.53
21988;BME280;11158;53.404;-1.510;2022-12-19T04:22:05;98873.50;;;12.65;72.66
21988;BME280;11158;53.404;-1.510;2022-12-19T04:24:37;98889.09;;;12.92;72.46
21988;BME280;11158;53.404;-1.510;2022-12-19T04:27:07;98890.34;;;13.01;72.37
21988;BME280;11158;53.404;-1.510;2022-12-19T04:29:35;98894.78;;;12.95;72.06
21988;BME280;11158;53.404;-1.510;2022-12-19T04:32:04;98896.84;;;13.29;72.16
21988;BME280;11158;53.404;-1.510;2022-12-19T04:34:30;98898.44;;;13.30;72.00
21988;BME280;11158;53.404;-1.510;2022-12-19T04:36:56;98892.69;;;13.26;71.52
21988;BME280;11158;53.404;-1.510;2022-12-19T04:39:21;98897.91;;;13.04;72.76
21988;BME280;11158;53.404;-1.510;2022-12-19T04:41:47;98893.22;;;13.11;72.58
21988;BME280;11158;53.404;-1.510;2022-12-19T04:44:14;98895.22;;;13.56;71.30
21988;BME280;11158;53.404;-1.510;2022-12-19T04:46:40;98892.41;;;13.51;71.90
21988;BME280;11158;53.404;-1.510;2022-12-19T04:49:06;98888.09;;;13.50;71.41
21988;BME280;11158;53.404;-1.510;2022-12-19T04:51:32;98889.72;;;13.80;70.61
21988;BME280;11158;53.404;-1.510;2022-12-19T04:53:58;98893.19;;;13.64;70.91
21988;BME280;11158;53.404;-1.510;2022-12-19T04:56:23;98892.19;;;13.53;71.67
21988;BME280;11158;53.404;-1.510;2022-12-19T04:58:55;98884.66;;;13.38;71.59
21988;BME280;11158;53.404;-1.510;2022-12-19T05:01:21;98880.34;;;13.66;72.15
21988;BME280;11158;53.404;-1.510;2022-12-19T05:03:47;98885.63;;;13.32;72.44
21988;BME280;11158;53.404;-1.510;2022-12-19T05:06:13;98890.94;;;13.72;71.21
21988;BME280;11158;53.404;-1.510;2022-12-19T05:08:41;98893.72;;;13.77;71.13
21988;BME280;11158;53.404;-1.510;2022-12-19T05:11:09;98890.28;;;13.82;71.25
21988;BME280;11158;53.404;-1.510;2022-12-19T05:13:35;98874.00;;;13.72;71.19
21988;BME280;11158;53.404;-1.510;2022-12-19T05:16:03;98876.47;;;14.24;69.69
21988;BME280;11158;53.404;-1.510;2022-12-19T05:18:30;98893.59;;;14.18;69.79
21988;BME280;11158;53.404;-1.510;2022-12-19T05:20:56;98889.41;;;13.93;71.41
21988;BME280;11158;53.404;-1.510;2022-12-19T05:23:22;98884.78;;;14.06;70.56
21988;BME280;11158;53.404;-1.510;2022-12-19T05:25:48;98875.28;;;13.69;72.14
21988;BME280;11158;53.404;-1.510;2022-12-19T05:28:14;98875.81;;;14.00;71.49
21988;BME280;11158;53.404;-1.510;2022-12-19T05:30:40;98876.38;;;13.85;70.92
21988;BME280;11158;53.404;-1.510;2022-12-19T05:33:07;98879.13;;;13.73;72.11
21988;BME280;11158;53.404;-1.510;2022-12-19T05:35:34;98878.22;;;13.68;71.36
21988;BME280;11158;53.404;-1.510;2022-12-19T05:38:00;98876.78;;;13.77;71.28
21988;BME280;11158;53.404;-1.510;2022-12-19T05:40:26;98877.75;;;13.71;72.46
21988;BME280;11158;53.404;-1.510;2022-12-19T05:42:52;98878.91;;;14.09;70.56
21988;BME280;11158;53.404;-1.510;2022-12-19T05:45:18;98876.00;;;14.27;69.96
21988;BME280;11158;53.404;-1.510;2022-12-19T05:47:44;98871.88;;;13.74;71.79
21988;BME280;11158;53.404;-1.510;2022-12-19T05:50:12;98882.66;;;13.91;71.90
21988;BME280;11158;53.404;-1.510;2022-12-19T05:52:40;98884.28;;;14.42;69.58
21988;BME280;11158;53.404;-1.510;2022-12-19T05:55:07;98877.88;;;13.93;70.74
21988;BME280;11158;53.404;-1.510;2022-12-19T05:57:34;98888.75;;;14.20;70.51
21988;BME280;11158;53.404;-1.510;2022-12-19T06:00:00;98886.88;;;14.03;71.42
21988;BME280;11158;53.404;-1.510;2022-12-19T06:02:31;98882.72;;;14.13;70.53
21988;BME280;11158;53.404;-1.510;2022-12-19T06:04:57;98886.06;;;14.03;71.73
21988;BME280;11158;53.404;-1.510;2022-12-19T06:07:24;98888.84;;;14.42;70.59
21988;BME280;11158;53.404;-1.510;2022-12-19T06:09:49;98874.34;;;13.92;71.51
21988;BME280;11158;53.404;-1.510;2022-12-19T06:12:15;98878.25;;;14.35;70.73
21988;BME280;11158;53.404;-1.510;2022-12-19T06:14:40;98875.44;;;14.25;70.16
21988;BME280;11158;53.404;-1.510;2022-12-19T06:17:06;98876.28;;;13.97;71.28
21988;BME280;11158;53.404;-1.510;2022-12-19T06:19:32;98873.31;;;13.93;71.78
21988;BME280;11158;53.404;-1.510;2022-12-19T06:21:57;98878.09;;;14.25;71.16
21988;BME280;11158;53.404;-1.510;2022-12-19T06:24:24;98868.00;;;14.32;70.58
21988;BME280;11158;53.404;-1.510;2022-12-19T06:26:49;98870.53;;;14.22;71.12
21988;BME280;11158;53.404;-1.510;2022-12-19T06:29:15;98873.84;;;14.29;71.06
21988;BME280;11158;53.404;-1.510;2022-12-19T06:31:41;98873.84;;;14.29;71.07
21988;BME280;11158;53.404;-1.510;2022-12-19T06:34:09;98874.41;;;14.31;70.41
21988;BME280;11158;53.404;-1.510;2022-12-19T06:36:36;98866.81;;;14.45;70.88
21988;BME280;11158;53.404;-1.510;2022-12-19T06:39:02;98869.22;;;14.58;70.22
21988;BME280;11158;53.404;-1.510;2022-12-19T06:41:29;98864.66;;;14.08;71.44
21988;BME280;11158;53.404;-1.510;2022-12-19T06:44:14;98860.56;;;14.56;70.85
21988;BME280;11158;53.404;-1.510;2022-12-19T06:46:41;98855.47;;;14.55;70.90
21988;BME280;11158;53.404;-1.510;2022-12-19T06:49:07;98851.06;;;14.32;71.05
21988;BME280;11158;53.404;-1.510;2022-12-19T06:51:34;98861.16;;;14.08;72.21
21988;BME280;11158;53.404;-1.510;2022-12-19T06:54:00;98850.91;;;14.04;71.62
21988;BME280;11158;53.404;-1.510;2022-12-19T06:56:26;98852.38;;;14.12;71.63
21988;BME280;11158;53.404;-1.510;2022-12-19T06:58:52;98861.63;;;14.38;70.64
21988;BME280;11158;53.404;-1.510;2022-12-19T07:04:04;98858.13;;;14.04;72.16
21988;BME280;11158;53.404;-1.510;2022-12-19T07:06:31;98845.66;;;14.49;70.97
21988;BME280;11158;53.404;-1.510;2022-12-19T07:08:56;98860.34;;;14.58;70.16
21988;BME280;11158;53.404;-1.510;2022-12-19T07:11:22;98866.84;;;14.62;70.39
21988;BME280;11158;53.404;-1.510;2022-12-19T07:13:48;98863.69;;;14.87;69.13
21988;BME280;11158;53.404;-1.510;2022-12-19T07:16:14;98871.22;;;14.68;70.27
21988;BME280;11158;53.404;-1.510;2022-12-19T07:18:39;98874.47;;;14.70;70.57
21988;BME280;11158;53.404;-1.510;2022-12-19T07:21:07;98859.28;;;14.81;70.50
21988;BME280;11158;53.404;-1.510;2022-12-19T07:23:35;98856.75;;;14.35;70.81
21988;BME280;11158;53.404;-1.510;2022-12-19T07:26:02;98860.66;;;14.83;70.18
21988;BME280;11158;53.404;-1.510;2022-12-19T07:28:27;98866.47;;;14.36;71.70
21988;BME280;11158;53.404;-1.510;2022-12-19T07:30:53;98862.00;;;15.03;69.36
21988;BME280;11158;53.404;-1.510;2022-12-19T07:33:19;98850.97;;;14.43;70.64
21988;BME280;11158;53.404;-1.510;2022-12-19T07:35:45;98858.53;;;14.46;71.25
21988;BME280;11158;53.404;-1.510;2022-12-19T07:38:10;98843.03;;;14.54;71.66
21988;BME280;11158;53.404;-1.510;2022-12-19T07:40:37;98840.16;;;14.99;69.41
21988;BME280;11158;53.404;-1.510;2022-12-19T07:43:04;98854.28;;;14.68;70.27
21988;BME280;11158;53.404;-1.510;2022-12-19T07:45:31;98851.34;;;14.69;70.60
21988;BME280;11158;53.404;-1.510;2022-12-19T07:48:00;98838.13;;;14.68;70.58
21988;BME280;11158;53.404;-1.510;2022-12-19T07:50:27;98841.91;;;14.50;71.26
21988;BME280;11158;53.404;-1.510;2022-12-19T07:52:52;98846.09;;;14.79;69.78
21988;BME280;11158;53.404;-1.510;2022-12-19T07:55:18;98846.53;;;14.71;70.32
21988;BME280;11158;53.404;-1.510;2022-12-19T07:57:44;98844.44;;;14.39;71.56
21988;BME280;11158;53.404;-1.510;2022-12-19T08:00:10;98849.59;;;15.02;69.45
21988;BME280;11158;53.404;-1.510;2022-12-19T08:02:36;98855.34;;;14.50;70.71
21988;BME280;11158;53.404;-1.510;2022-12-19T08:05:03;98856.22;;;15.16;69.10
21988;BME280;11158;53.404;-1.510;2022-12-19T08:07:28;98860.28;;;14.75;70.32
21988;BME280;11158;53.404;-1.510;2022-12-19T08:09:54;98851.59;;;14.51;71.49
21988;BME280;11158;53.404;-1.510;2022-12-19T08:12:20;98855.81;;;14.80;70.30
21988;BME280;11158;53.404;-1.510;2022-12-19T08:14:46;98853.94;;;15.03;69.58
21988;BME280;11158;53.404;-1.510;2022-12-19T08:17:11;98861.66;;;14.55;71.85
21988;BME280;11158;53.404;-1.510;2022-12-19T08:19:38;98867.38;;;14.81;70.35
21988;BME280;11158;53.404;-1.510;2022-12-19T08:22:05;98881.63;;;14.81;70.29
21988;BME280;11158;53.404;-1.510;2022-12-19T08:24:31;98873.28;;;14.61;70.08
21988;BME280;11158;53.404;-1.510;2022-12-19T08:26:56;98877.19;;;14.92;70.08
21988;BME280;11158;53.404;-1.510;2022-12-19T08:29:22;98883.81;;;15.06;70.30
21988;BME280;11158;53.404;-1.510;2022-12-19T08:31:49;98876.03;;;14.49;72.17
21988;BME280;11158;53.404;-1.510;2022-12-19T08:34:15;98875.69;;;15.01;70.44
21988;BME280;11158;53.404;-1.510;2022-12-19T08:36:40;98878.53;;;15.39;69.13
21988;BME280;11158;53.404;-1.510;2022-12-19T08:39:06;98880.53;;;15.21;69.16
21988;BME280;11158;53.404;-1.510;2022-12-19T08:41:32;98889.34;;;15.17;69.24
21988;BME280;11158;53.404;-1.510;2022-12-19T08:43:58;98891.19;;;15.16;69.32
21988;BME280;11158;53.404;-1.510;2022-12-19T08:46:25;98900.66;;;15.41;68.88
21988;BME280;11158;53.404;-1.510;2022-12-19T08:48:52;98890.69;;;15.41;67.95
21988;BME280;11158;53.404;-1.510;2022-12-19T08:51:19;98892.34;;;15.20;69.93
21988;BME280;11158;53.404;-1.510;2022-12-19T08:53:45;98888.03;;;15.19;69.40
21988;BME280;11158;53.404;-1.510;2022-12-19T08:56:13;98879.31;;;15.34;68.97
21988;BME280;11158;53.404;-1.510;2022-12-19T08:58:39;98889.53;;;15.59;68.11
21988;BME280;11158;53.404;-1.510;2022-12-19T09:01:10;98872.34;;;15.16;68.87
21988;BME280;11158;53.404;-1.510;2022-12-19T09:03:37;98874.28;;;15.43;68.26
21988;BME280;11158;53.404;-1.510;2022-12-19T09:06:05;98869.44;;;14.74;70.56
21988;BME280;11158;53.404;-1.510;2022-12-19T09:08:32;98876.00;;;14.83;70.84
21988;BME280;11158;53.404;-1.510;2022-12-19T09:10:59;98879.00;;;15.31;69.80
21988;BME280;11158;53.404;-1.510;2022-12-19T09:13:26;98881.31;;;15.44;68.18
21988;BME280;11158;53.404;-1.510;2022-12-19T09:18:33;98869.50;;;15.72;67.02
21988;BME280;11158;53.404;-1.510;2022-12-19T09:21:00;98873.09;;;16.15;66.27
21988;BME280;11158;53.404;-1.510;2022-12-19T09:23:27;98873.41;;;15.64;66.82
21988;BME280;11158;53.404;-1.510;2022-12-19T09:25:53;98878.38;;;15.23;68.85
21988;BME280;11158;53.404;-1.510;2022-12-19T09:28:20;98875.38;;;15.20;68.98
21988;BME280;11158;53.404;-1.510;2022-12-19T09:30:56;98880.09;;;15.57;68.09
21988;BME280;11158;53.404;-1.510;2022-12-19T09:33:24;98880.97;;;15.62;67.52
21988;BME280;11158;53.404;-1.510;2022-12-19T09:35:51;98874.28;;;15.92;66.45
21988;BME280;11158;53.404;-1.510;2022-12-19T09:38:18;98866.13;;;15.33;68.49
21988;BME280;11158;53.404;-1.510;2022-12-19T09:44:56;98861.94;;;15.47;68.37
21988;BME280;11158;53.404;-1.510;2022-12-19T09:46:56;98857.84;;;15.99;66.35
21988;BME280;11158;53.404;-1.510;2022-12-19T09:49:28;98854.31;;;15.93;66.77
21988;BME280;11158;53.404;-1.510;2022-12-19T09:54:47;98849.28;;;16.02;66.45
21988;BME280;11158;53.404;-1.510;2022-12-19T10:00:11;98832.56;;;15.45;68.55
21988;BME280;11158;53.404;-1.510;2022-12-19T10:02:43;98852.31;;;15.51;68.51
21988;BME280;11158;53.404;-1.510;2022-12-19T10:07:44;98864.59;;;15.42;68.79
21988;BME280;11158;53.404;-1.510;2022-12-19T10:10:26;98862.91;;;15.36;68.75
21988;BME280;11158;53.404;-1.510;2022-12-19T10:18:50;98860.09;;;15.25;69.74
21988;BME280;11158;53.404;-1.510;2022-12-19T10:24:02;98883.78;;;15.23;69.05
21988;BME280;11158;53.404;-1.510;2022-12-19T10:26:51;98874.94;;;15.28;69.11
21988;BME280;11158;53.404;-1.510;2022-12-19T10:29:43;98872.41;;;15.43;68.69
21988;BME280;11158;53.404;-1.510;2022-12-19T10:34:49;98864.59;;;15.42;68.74
21988;BME280;11158;53.404;-1.510;2022-12-19T10:42:31;98853.56;;;15.43;68.32
21988;BME280;11158;53.404;-1.510;2022-12-19T10:45:02;98843.50;;;15.61;67.82
21988;BME280;11158;53.404;-1.510;2022-12-19T10:47:30;98844.97;;;15.19;68.82
21988;BME280;11158;53.404;-1.510;2022-12-19T10:49:56;98842.66;;;15.28;68.32
21988;BME280;11158;53.404;-1.510;2022-12-19T10:52:48;98823.59;;;15.35;68.18
21988;BME280;11158;53.404;-1.510;2022-12-19T10:55:23;98831.03;;;15.27;68.71
21988;BME280;11158;53.404;-1.510;2022-12-19T10:57:57;98836.75;;;15.58;67.02
21988;BME280;11158;53.404;-1.510;2022-12-19T11:00:22;98829.16;;;15.55;66.58
21988;BME280;11158;53.404;-1.510;2022-12-19T11:02:50;98832.13;;;15.26;67.64
21988;BME280;11158;53.404;-1.510;2022-12-19T11:05:42;98843.47;;;15.56;66.89
21988;BME280;11158;53.404;-1.510;2022-12-19T11:08:23;98839.31;;;16.02;65.76
21988;BME280;11158;53.404;-1.510;2022-12-19T11:10:55;98829.84;;;15.67;66.54
21988;BME280;11158;53.404;-1.510;2022-12-19T11:15:56;98838.47;;;15.69;65.89
21988;BME280;11158;53.404;-1.510;2022-12-19T11:18:23;98836.44;;;15.82;65.92
21988;BME280;11158;53.404;-1.510;2022-12-19T11:21:00;98836.53;;;15.38;66.96
21988;BME280;11158;53.404;-1.510;2022-12-19T11:23:27;98810.00;;;16.11;64.41
21988;BME280;11158;53.404;-1.510;2022-12-19T11:25:59;98810.81;;;16.11;63.84
21988;BME280;11158;53.404;-1.510;2022-12-19T11:28:34;98815.16;;;16.18;64.68
21988;BME280;11158;53.404;-1.510;2022-12-19T11:31:07;98806.81;;;16.19;64.13
21988;BME280;11158;53.404;-1.510;2022-12-19T11:33:36;98804.47;;;16.81;61.95
21988;BME280;11158;53.404;-1.510;2022-12-19T11:36:03;98806.09;;;16.29;63.40
21988;BME280;11158;53.404;-1.510;2022-12-19T11:38:36;98807.09;;;16.18;64.14
21988;BME280;11158;53.404;-1.510;2022-12-19T11:41:22;98799.25;;;16.69;62.37
21988;BME280;11158;53.404;-1.510;2022-12-19T11:44:08;98802.44;;;16.55;63.48
21988;BME280;11158;53.404;-1.510;2022-12-19T11:46:44;98813.06;;;16.25;63.92
21988;BME280;11158;53.404;-1.510;2022-12-19T11:49:33;98803.16;;;15.98;64.46
21988;BME280;11158;53.404;-1.510;2022-12-19T11:52:22;98794.69;;;15.84;65.58
21988;BME280;11158;53.404;-1.510;2022-12-19T11:57:18;98792.94;;;16.43;63.81
21988;BME280;11158;53.404;-1.510;2022-12-19T11:59:44;98792.53;;;15.81;65.88
21988;BME280;11158;53.404;-1.510;2022-12-19T12:07:54;98791.47;;;15.55;66.46
21988;BME280;11158;53.404;-1.510;2022-12-19T12:10:28;98790.41;;;15.56;66.64
21988;BME280;11158;53.404;-1.510;2022-12-19T12:13:09;98774.31;;;15.66;66.18
21988;BME280;11158;53.404;-1.510;2022-12-19T12:21:28;98784.09;;;15.45;67.49
21988;BME280;11158;53.404;-1.510;2022-12-19T12:27:02;98765.41;;;15.61;67.57
21988;BME280;11158;53.404;-1.510;2022-12-19T12:30:02;98755.63;;;15.22;67.34
21988;BME280;11158;53.404;-1.510;2022-12-19T12:35:25;98743.59;;;15.95;65.43
21988;BME280;11158;53.404;-1.510;2022-12-19T12:40:52;98742.47;;;15.53;66.61
21988;BME280;11158;53.404;-1.510;2022-12-19T12:46:22;98733.19;;;16.13;65.48
21988;BME280;11158;53.404;-1.510;2022-12-19T12:48:56;98731.75;;;16.01;64.53
21988;BME280;11158;53.404;-1.510;2022-12-19T12:51:24;98717.91;;;16.29;64.04
21988;BME280;11158;53.404;-1.510;2022-12-19T12:53:55;98728.25;;;15.63;65.71
21988;BME280;11158;53.404;-1.510;2022-12-19T12:56:23;98717.28;;;15.37;66.44
21988;BME280;11158;53.404;-1.510;2022-12-19T12:59:02;98703.66;;;16.34;62.93
21988;BME280;11158;53.404;-1.510;2022-12-19T13:01:33;98708.53;;;15.89;64.70
21988;BME280;11158;53.404;-1.510;2022-12-19T13:04:05;98718.91;;;16.13;64.61
21988;BME280;11158;53.404;-1.510;2022-12-19T13:07:04;98714.16;;;15.83;65.58
21988;BME280;11158;53.404;-1.510;2022-12-19T13:09:36;98702.84;;;16.33;64.92
21988;BME280;11158;53.404;-1.510;2022-12-19T13:12:26;98695.88;;;15.20;67.90
21988;BME280;11158;53.404;-1.510;2022-12-19T13:15:19;98695.56;;;15.86;66.29
21988;BME280;11158;53.404;-1.510;2022-12-19T13:25:48;98664.63;;;15.14;68.16
21988;BME280;11158;53.404;-1.510;2022-12-19T13:39:34;98651.22;;;15.24;67.19
21988;BME280;11158;53.404;-1.510;2022-12-19T13:42:14;98651.34;;;15.40;66.52
21988;BME280;11158;53.404;-1.510;2022-12-19T13:45:07;98648.16;;;15.48;66.57
21988;BME280;11158;53.404;-1.510;2022-12-19T13:47:38;98652.22;;;15.50;66.26
21988;BME280;11158;53.404;-1.510;2022-12-19T13:50:17;98647.28;;;15.75;65.96
21988;BME280;11158;53.404;-1.510;2022-12-19T13:52:48;98643.31;;;15.45;66.61
21988;BME280;11158;53.404;-1.510;2022-12-19T13:55:14;98640.13;;;15.96;65.46
21988;BME280;11158;53.404;-1.510;2022-12-19T13:57:39;98635.84;;;15.57;66.04
21988;BME280;11158;53.404;-1.510;2022-12-19T14:00:15;98656.63;;;15.29;66.80
21988;BME280;11158;53.404;-1.510;2022-12-19T14:02:51;98648.09;;;15.38;66.75
21988;BME280;11158;53.404;-1.510;2022-12-19T14:05:29;98659.22;;;15.46;66.79
21988;BME280;11158;53.404;-1.510;2022-12-19T14:07:56;98663.28;;;15.54;66.47
21988;BME280;11158;53.404;-1.510;2022-12-19T14:10:32;98646.75;;;15.03;67.75
21988;BME280;11158;53.404;-1.510;2022-12-19T14:13:02;98651.22;;;15.24;66.87
21988;BME280;11158;53.404;-1.510;2022-12-19T14:15:48;98647.00;;;15.34;66.71
21988;BME280;11158;53.404;-1.510;2022-12-19T14:18:21;98643.59;;;15.16;66.88
21988;BME280;11158;53.404;-1.510;2022-12-19T14:20:48;98656.69;;;15.35;66.37
21988;BME280;11158;53.404;-1.510;2022-12-19T14:23:16;98667.06;;;15.90;64.71
21988;BME280;11158;53.404;-1.510;2022-12-19T14:28:13;98650.97;;;15.63;65.17
21988;BME280;11158;53.404;-1.510;2022-12-19T14:30:42;98645.97;;;15.40;66.05
21988;BME280;11158;53.404;-1.510;2022-12-19T14:33:16;98645.78;;;15.52;65.53
21988;BME280;11158;53.404;-1.510;2022-12-19T14:35:46;98649.78;;;15.49;65.59
21988;BME280;11158;53.404;-1.510;2022-12-19T14:38:24;98641.06;;;15.37;66.77
21988;BME280;11158;53.404;-1.510;2022-12-19T14:40:51;98640.78;;;15.33;67.00
21988;BME280;11158;53.404;-1.510;2022-12-19T14:43:21;98642.56;;;15.55;66.73
21988;BME280;11158;53.404;-1.510;2022-12-19T14:48:51;98641.44;;;15.50;66.60
21988;BME280;11158;53.404;-1.510;2022-12-19T14:51:35;98637.00;;;14.97;68.50
21988;BME280;11158;53.404;-1.510;2022-12-19T14:54:24;98641.81;;;14.95;68.47
21988;BME280;11158;53.404;-1.510;2022-12-19T14:57:17;98640.47;;;15.24;67.55
21988;BME280;11158;53.404;-1.510;2022-12-19T14:59:46;98624.84;;;15.21;66.99
21988;BME280;11158;53.404;-1.510;2022-12-19T15:02:20;98639.38;;;15.25;67.66
21988;BME280;11158;53.404;-1.510;2022-12-19T15:05:01;98649.13;;;15.32;66.28
21988;BME280;11158;53.404;-1.510;2022-12-19T15:07:29;98663.66;;;15.31;66.44
21988;BME280;11158;53.404;-1.510;2022-12-19T15:10:16;98657.06;;;15.48;66.41